Time;durP1;ratioP1;P1;durP2;ratioP2;P2;SDS_P1;SDS_P2;PMS_P1;PMS_P2;Temp;Humidity;BMP_temperature;BMP_pressure;BME280_temperature;BME280_humidity;BME280_pressure;Samples;Min_cycle;Max_cycle;Signal;HPM_P1;HPM_P2
2022/06/17 00:01:28;;;;;;;6.33;3.65;;;;;;;16.93;61.01;100489.09;1700540;84;25586;-65
2022/06/17 00:03:55;;;;;;;3.65;2.92;;;;;;;16.86;60.94;100494.37;1700422;84;27316;-65
2022/06/17 00:06:25;;;;;;;6.47;3.52;;;;;;;16.83;61.00;100486.83;1700262;84;25700;-65
2022/06/17 00:08:53;;;;;;;5.00;3.58;;;;;;;16.78;61.16;100488.64;1700378;84;25725;-65
2022/06/17 00:11:33;;;;;;;6.95;4.20;;;;;;;16.74;61.45;100488.34;1695646;84;25808;-65
2022/06/17 00:13:59;;;;;;;5.62;3.98;;;;;;;16.69;62.01;100472.98;1688462;83;25543;-65
2022/06/17 00:16:27;;;;;;;4.60;3.52;;;;;;;16.63;61.97;100471.62;1672088;85;27323;-65
2022/06/17 00:18:54;;;;;;;4.35;3.62;;;;;;;16.58;62.14;100478.14;1672131;85;25687;-65
2022/06/17 00:21:27;;;;;;;6.67;4.05;;;;;;;16.52;62.23;100483.59;1672196;85;25423;-66
2022/06/17 00:23:53;;;;;;;4.40;4.00;;;;;;;16.47;62.29;100483.05;1672199;85;25597;-64
2022/06/17 00:26:21;;;;;;;5.30;3.75;;;;;;;16.41;62.57;100481.92;1672145;85;25487;-64
2022/06/17 00:28:48;;;;;;;4.60;3.60;;;;;;;16.37;62.72;100484.31;1672180;85;27401;-65
2022/06/17 00:31:15;;;;;;;4.58;3.72;;;;;;;16.32;62.97;100479.08;1672102;85;25467;-65
2022/06/17 00:33:42;;;;;;;4.40;3.90;;;;;;;16.26;63.14;100486.72;1672078;85;25594;-65
2022/06/17 00:36:16;;;;;;;4.30;3.80;;;;;;;16.17;63.52;100478.63;1672165;85;25747;-65
2022/06/17 00:38:44;;;;;;;7.75;4.10;;;;;;;16.10;63.77;100474.31;1672243;85;25427;-65
2022/06/17 00:41:30;;;;;;;7.10;4.17;;;;;;;16.04;63.79;100474.34;1672147;85;27395;-65
2022/06/17 00:44:00;;;;;;;4.92;4.00;;;;;;;15.99;63.88;100478.66;1672116;85;25974;-64
2022/06/17 00:46:44;;;;;;;;;;;;;;;15.94;64.15;100484.34;1674608;85;25747;-65
2022/06/17 00:49:18;;;;;;;6.67;3.80;;;;;;;15.89;64.67;100488.08;1720243;83;25590;-64
2022/06/17 00:51:55;;;;;;;4.83;3.85;;;;;;;15.81;64.57;100494.43;1700308;83;25492;-65
2022/06/17 00:54:57;;;;;;;5.33;4.00;;;;;;;15.74;64.83;100485.98;1698700;84;27986;-65
2022/06/17 00:57:34;;;;;;;4.10;3.67;;;;;;;15.68;64.85;100484.03;1700255;84;25991;-67
2022/06/17 01:00:21;;;;;;;10.98;3.95;;;;;;;15.61;64.64;100480.52;1700330;84;25736;-64
2022/06/17 01:02:54;;;;;;;5.67;3.58;;;;;;;15.57;64.86;100478.23;1700334;84;25926;-64
2022/06/17 01:05:38;;;;;;;4.55;3.30;;;;;;;15.49;65.01;100470.94;1700392;84;25655;-67
2022/06/17 01:08:15;;;;;;;7.42;3.70;;;;;;;15.43;65.36;100475.03;1693169;83;27333;-67
2022/06/17 01:10:46;;;;;;;4.28;3.15;;;;;;;15.36;64.97;100470.13;1700142;84;25644;-67
2022/06/17 01:13:14;;;;;;;4.47;2.85;;;;;;;15.29;65.37;100470.67;1700339;84;25578;-67
2022/06/17 01:15:42;;;;;;;5.27;3.67;;;;;;;15.24;65.08;100474.19;1700622;84;25425;-67
2022/06/17 01:18:11;;;;;;;6.75;3.30;;;;;;;15.20;65.47;100477.34;1700452;84;25675;-67
2022/06/17 01:20:42;;;;;;;4.25;3.47;;;;;;;15.13;65.35;100477.30;1700548;84;27945;-67
2022/06/17 01:23:13;;;;;;;5.47;3.58;;;;;;;15.08;65.43;100478.88;1700425;84;25402;-67
2022/06/17 01:25:45;;;;;;;6.08;3.80;;;;;;;15.04;65.46;100482.05;1700502;84;25580;-66
2022/06/17 01:28:16;;;;;;;7.72;3.65;;;;;;;14.98;65.61;100481.22;1700347;84;25406;-65
2022/06/17 01:30:49;;;;;;;6.22;3.40;;;;;;;14.91;65.75;100488.02;1700532;84;25693;-65
2022/06/17 01:33:26;;;;;;;6.80;3.08;;;;;;;14.85;65.95;100482.53;1700934;84;27383;-65
2022/06/17 01:36:21;;;;;;;3.65;3.00;;;;;;;14.80;65.97;100484.67;1703450;84;25649;-65
2022/06/17 01:38:52;;;;;;;5.92;3.35;;;;;;;14.74;65.92;100483.52;1703453;84;25490;-66
2022/06/17 01:41:23;;;;;;;3.47;3.17;;;;;;;14.67;66.13;100492.75;1703356;84;25628;-65
2022/06/17 01:43:57;;;;;;;3.87;2.95;;;;;;;14.61;66.28;100498.72;1703557;84;25645;-65
2022/06/17 01:46:34;;;;;;;4.42;3.52;;;;;;;14.54;66.46;100504.11;1703478;84;27402;-65
2022/06/17 01:49:21;;;;;;;7.95;3.22;;;;;;;14.47;66.78;100502.48;1703079;83;25539;-64
2022/06/17 01:51:58;;;;;;;9.80;3.70;;;;;;;14.40;66.61;100504.91;1703490;84;25603;-66
2022/06/17 01:54:29;;;;;;;4.50;3.60;;;;;;;14.36;66.77;100506.13;1703449;84;25985;-66
2022/06/17 01:57:00;;;;;;;7.97;3.52;;;;;;;14.29;66.84;100515.37;1703542;84;25671;-66
2022/06/17 01:59:39;;;;;;;5.80;3.70;;;;;;;14.21;66.64;100512.14;1703402;84;27340;-66
2022/06/17 02:02:08;;;;;;;5.45;3.10;;;;;;;14.17;67.17;100518.80;1703273;84;25715;-67
2022/06/17 02:04:38;;;;;;;9.53;4.23;;;;;;;14.10;67.18;100521.23;1703725;84;25569;-66
2022/06/17 02:07:19;;;;;;;8.33;4.28;;;;;;;14.07;67.31;100525.18;1703370;84;25640;-67
2022/06/17 02:09:46;;;;;;;5.35;4.08;;;;;;;14.03;67.47;100525.58;1701648;84;25652;-65
2022/06/17 02:12:15;;;;;;;5.22;4.25;;;;;;;13.96;67.38;100530.16;1703519;84;27995;-65
2022/06/17 02:14:42;;;;;;;6.70;3.98;;;;;;;13.91;67.49;100529.80;1703477;84;25640;-64
2022/06/17 02:17:09;;;;;;;6.67;4.30;;;;;;;13.85;67.57;100533.81;1703506;84;25576;-65
2022/06/17 02:19:39;;;;;;;6.08;3.80;;;;;;;13.80;67.45;100532.05;1703591;84;26085;-65
2022/06/17 02:22:14;;;;;;;6.45;4.12;;;;;;;13.76;67.55;100533.84;1703597;84;25564;-65
2022/06/17 02:24:41;;;;;;;5.05;4.10;;;;;;;13.72;67.84;100542.39;1703626;84;27397;-65
2022/06/17 02:27:11;;;;;;;4.87;3.70;;;;;;;13.67;67.78;100540.41;1703466;84;25735;-65
2022/06/17 02:29:41;;;;;;;4.22;3.62;;;;;;;13.64;67.92;100540.52;1703657;84;25576;-65
2022/06/17 02:32:08;;;;;;;;;;;;;;;13.60;67.73;100536.83;1706089;84;25667;-67
2022/06/17 02:34:39;;;;;;;7.97;3.67;;;;;;;13.58;68.00;100541.22;1696860;84;25537;-67
2022/06/17 02:37:13;;;;;;;7.92;3.70;;;;;;;13.54;68.11;100544.93;1705751;84;28017;-67
2022/06/17 02:39:45;;;;;;;5.00;3.50;;;;;;;13.51;68.03;100546.92;1691991;84;25613;-67
2022/06/17 02:42:22;;;;;;;5.30;3.50;;;;;;;13.47;68.20;100556.83;1706610;84;25556;-65
2022/06/17 02:44:54;;;;;;;4.33;3.55;;;;;;;13.43;68.25;100562.92;1692097;84;25539;-66
2022/06/17 02:47:22;;;;;;;4.65;3.62;;;;;;;13.41;68.31;100561.64;1692040;84;25651;-65
2022/06/17 02:49:48;;;;;;;4.97;3.22;;;;;;;13.40;68.29;100562.75;1692053;84;28100;-67
2022/06/17 02:52:19;;;;;;;8.90;3.40;;;;;;;13.38;68.19;100564.99;1706546;84;25471;-67
2022/06/17 02:54:53;;;;;;;5.45;3.33;;;;;;;13.38;68.27;100564.99;1692047;84;25424;-64
2022/06/17 02:57:27;;;;;;;5.87;3.20;;;;;;;13.37;68.12;100565.56;1692034;84;25423;-65
2022/06/17 03:00:14;;;;;;;4.92;3.30;;;;;;;13.35;68.23;100565.63;1691972;84;25426;-64
2022/06/17 03:02:47;;;;;;;7.95;3.83;;;;;;;13.33;68.35;100569.23;1692116;84;28114;-65
2022/06/17 03:05:22;;;;;;;3.75;3.05;;;;;;;13.33;68.32;100569.23;1691943;84;25648;-65
2022/06/17 03:07:54;;;;;;;7.92;3.65;;;;;;;13.31;68.23;100576.31;1692045;84;25433;-65
2022/06/17 03:10:37;;;;;;;4.22;2.92;;;;;;;13.32;68.22;100584.73;1691985;84;25647;-65
2022/06/17 03:13:14;;;;;;;3.30;2.98;;;;;;;13.31;68.26;100592.61;1692027;84;25557;-65
2022/06/17 03:15:45;;;;;;;4.50;3.17;;;;;;;13.30;68.22;100592.39;1706446;84;27411;-65
2022/06/17 03:18:11;;;;;;;5.92;3.20;;;;;;;13.29;68.14;100589.42;1691972;84;25636;-66
2022/06/17 03:20:38;;;;;;;5.10;2.95;;;;;;;13.30;68.29;100597.82;1706630;84;25625;-64
2022/06/17 03:23:16;;;;;;;3.30;2.90;;;;;;;13.30;68.29;100595.64;1691942;84;25482;-66
2022/06/17 03:25:53;;;;;;;8.10;2.70;;;;;;;13.31;68.32;100597.25;1692085;84;25646;-65
2022/06/17 03:28:43;;;;;;;6.28;2.85;;;;;;;13.33;68.30;100607.27;1690955;84;27443;-65
2022/06/17 03:31:20;;;;;;;4.85;2.85;;;;;;;13.32;68.19;100610.55;1690980;84;25488;-67
2022/06/17 03:34:04;;;;;;;5.67;3.02;;;;;;;13.34;68.14;100611.59;1692746;84;25630;-67
2022/06/17 03:36:54;;;;;;;5.28;2.65;;;;;;;13.33;68.20;100605.37;1699844;84;25470;-67
2022/06/17 03:39:28;;;;;;;5.08;2.87;;;;;;;13.33;68.13;100605.37;1700986;84;25617;-66
2022/06/17 03:42:17;;;;;;;3.25;2.60;;;;;;;13.34;68.13;100603.44;1699989;84;27433;-67
2022/06/17 03:44:58;;;;;;;3.52;2.52;;;;;;;13.33;68.13;100601.30;1701982;84;25495;-65
2022/06/17 03:47:51;;;;;;;3.50;2.60;;;;;;;13.34;68.06;100608.30;1721415;83;25550;-65
2022/06/17 03:50:31;;;;;;;2.87;2.27;;;;;;;13.36;68.20;100606.06;1701977;83;25846;-64
2022/06/17 03:53:09;;;;;;;4.00;2.58;;;;;;;13.39;68.21;100606.00;1701931;84;25625;-64
2022/06/17 03:55:36;;;;;;;7.30;2.65;;;;;;;13.42;68.16;100613.52;1686971;84;27361;-65
2022/06/17 03:58:04;;;;;;;3.92;2.40;;;;;;;13.46;68.14;100623.97;1700473;84;25662;-65
2022/06/17 04:00:38;;;;;;;3.92;2.50;;;;;;;13.50;68.20;100620.05;1700474;84;25587;-65
2022/06/17 04:03:13;;;;;;;7.28;2.65;;;;;;;13.53;68.31;100613.98;1720239;83;25656;-66
2022/06/17 04:05:41;;;;;;;5.28;2.58;;;;;;;13.58;68.33;100613.81;1700537;84;25645;-65
2022/06/17 04:08:11;;;;;;;3.83;2.77;;;;;;;13.62;68.25;100613.40;1700683;84;27337;-65
2022/06/17 04:10:38;;;;;;;9.93;3.05;;;;;;;13.67;68.42;100615.95;1700473;84;25629;-64
2022/06/17 04:13:04;;;;;;;4.33;3.30;;;;;;;13.74;68.33;100620.91;1700378;84;25509;-64
2022/06/17 04:15:48;;;;;;;7.15;3.72;;;;;;;13.79;68.39;100625.62;1672457;84;25568;-67
2022/06/17 04:18:14;;;;;;;5.30;3.60;;;;;;;13.84;68.39;100620.56;1700587;84;25259;-64
2022/06/17 04:20:58;;;;;;;4.83;2.70;;;;;;;13.91;68.37;100624.97;1700647;84;27438;-64
2022/06/17 04:23:33;;;;;;;5.05;2.67;;;;;;;13.96;68.36;100625.34;1699224;84;25564;-66
2022/06/17 04:26:13;;;;;;;6.47;2.52;;;;;;;14.01;68.25;100625.98;1700576;84;25486;-65
2022/06/17 04:29:02;;;;;;;3.22;1.92;;;;;;;14.08;68.39;100623.31;1700589;84;25643;-64
2022/06/17 04:31:30;;;;;;;;;;;;;;;14.15;68.39;100625.78;1703310;84;25224;-66
2022/06/17 04:34:07;;;;;;;4.67;2.22;;;;;;;14.20;68.51;100624.25;1700620;84;27383;-66
2022/06/17 04:36:44;;;;;;;4.17;2.08;;;;;;;14.26;68.39;100628.15;1672560;84;25481;-67
2022/06/17 04:39:39;;;;;;;2.35;2.02;;;;;;;14.35;68.25;100630.27;1700409;84;25677;-66
2022/06/17 04:42:16;;;;;;;5.15;2.12;;;;;;;14.40;68.10;100630.09;1700453;84;25668;-64
2022/06/17 04:44:43;;;;;;;3.45;2.08;;;;;;;14.46;68.13;100626.07;1700561;84;25422;-65
2022/06/17 04:47:14;;;;;;;4.58;1.85;;;;;;;14.53;68.11;100637.81;1700383;84;27285;-65
2022/06/17 04:49:48;;;;;;;4.65;1.77;;;;;;;14.60;68.04;100634.61;1700338;84;25640;-65
2022/06/17 04:52:34;;;;;;;3.12;1.80;;;;;;;14.67;67.89;100637.04;1700444;84;25595;-65
2022/06/17 04:55:01;;;;;;;6.12;2.20;;;;;;;14.74;67.87;100640.06;1699428;83;26291;-66
2022/06/17 04:57:30;;;;;;;2.90;2.10;;;;;;;14.83;67.89;100644.64;1700469;84;25750;-67
2022/06/17 04:59:59;;;;;;;4.03;2.10;;;;;;;14.91;67.73;100641.08;1700764;84;26870;-67
2022/06/17 05:02:31;;;;;;;3.58;1.60;;;;;;;15.03;67.97;100648.54;1700500;84;25596;-65
2022/06/17 05:05:03;;;;;;;3.77;2.08;;;;;;;15.12;67.75;100649.30;1700419;84;25476;-65
2022/06/17 05:07:33;;;;;;;2.75;2.02;;;;;;;15.21;67.48;100647.30;1700400;84;25619;-65
2022/06/17 05:10:05;;;;;;;2.95;1.80;;;;;;;15.29;67.13;100649.17;1700477;84;25232;-65
2022/06/17 05:12:39;;;;;;;3.80;1.50;;;;;;;15.36;66.88;100645.09;1700526;84;27353;-64
2022/06/17 05:15:19;;;;;;;3.62;2.30;;;;;;;15.46;66.94;100639.24;1700325;84;25766;-68
2022/06/17 05:17:45;;;;;;;;;;;;;;;15.56;66.78;100642.95;1702974;84;25450;-70
2022/06/17 05:20:17;;;;;;;5.05;2.10;;;;;;;15.68;66.85;100641.64;1700402;84;25699;-67
2022/06/17 05:22:54;;;;;;;2.40;1.50;;;;;;;15.78;66.73;100639.64;1700477;84;25628;-68
2022/06/17 05:25:26;;;;;;;3.55;1.75;;;;;;;15.91;66.27;100640.49;1700421;84;27613;-71
2022/06/17 05:27:53;;;;;;;3.20;1.60;;;;;;;16.02;65.77;100644.37;1700209;84;25686;-68
2022/06/17 05:30:20;;;;;;;3.20;1.80;;;;;;;16.13;65.43;100648.27;1700322;84;25643;-67
2022/06/17 05:32:51;;;;;;;7.70;2.42;;;;;;;16.28;65.60;100644.65;1700216;84;26186;-65
2022/06/17 05:35:19;;;;;;;2.52;1.55;;;;;;;16.46;65.36;100646.62;1701573;84;25558;-69
2022/06/17 05:37:46;;;;;;;3.17;1.67;;;;;;;16.66;65.48;100647.08;1703337;84;27333;-69
2022/06/17 05:40:13;;;;;;;1.72;1.57;;;;;;;16.86;65.03;100650.87;1703293;84;25637;-69
2022/06/17 05:42:43;;;;;;;2.08;1.57;;;;;;;17.03;64.33;100652.56;1703430;84;25628;-71
2022/06/17 05:45:18;;;;;;;2.40;1.50;;;;;;;17.18;64.16;100649.69;1677264;84;25635;-70
2022/06/17 05:47:44;;;;;;;5.70;2.42;;;;;;;17.28;62.96;100657.41;1703391;84;25489;-70
2022/06/17 05:50:17;;;;;;;3.55;1.50;;;;;;;17.35;63.09;100661.72;1703427;84;27460;-70
2022/06/17 05:53:03;;;;;;;4.08;1.45;;;;;;;17.42;62.69;100665.23;1703135;84;25636;-70
2022/06/17 05:55:32;;;;;;;2.55;1.55;;;;;;;17.49;62.14;100669.53;1703403;84;25558;-70
2022/06/17 05:57:59;;;;;;;4.22;1.87;;;;;;;17.60;62.11;100671.78;1703382;84;32295;-70
2022/06/17 06:00:26;;;;;;;5.60;2.45;;;;;;;17.68;62.18;100673.00;1703484;84;25463;-70
2022/06/17 06:02:59;;;;;;;3.25;1.55;;;;;;;17.79;61.64;100673.87;1703497;84;27416;-70
2022/06/17 06:05:30;;;;;;;4.60;1.80;;;;;;;17.88;61.30;100673.98;1702740;83;25410;-69
2022/06/17 06:07:57;;;;;;;3.70;1.65;;;;;;;17.98;60.78;100667.77;1703392;84;25608;-69
2022/06/17 06:10:25;;;;;;;7.47;1.80;;;;;;;18.07;60.48;100670.57;1703305;84;25766;-69
2022/06/17 06:12:56;;;;;;;2.77;1.45;;;;;;;18.16;60.40;100675.09;1703370;84;25732;-69
2022/06/17 06:15:35;;;;;;;1.50;1.40;;;;;;;18.25;59.97;100670.23;1703361;84;27292;-69
2022/06/17 06:18:03;;;;;;;2.83;1.45;;;;;;;18.38;60.24;100673.12;1703471;84;25402;-69
2022/06/17 06:20:29;;;;;;;4.10;1.05;;;;;;;18.53;59.42;100668.02;1703320;84;25597;-69
2022/06/17 06:22:55;;;;;;;2.25;1.02;;;;;;;18.62;58.80;100678.99;1703363;84;25720;-69
2022/06/17 06:25:23;;;;;;;5.85;1.65;;;;;;;18.70;58.08;100669.02;1703347;84;25889;-71
2022/06/17 06:27:50;;;;;;;1.65;1.10;;;;;;;18.82;58.36;100662.09;1703217;84;27398;-71
2022/06/17 06:30:22;;;;;;;3.98;1.50;;;;;;;18.99;58.20;100667.76;1703299;84;25742;-72
2022/06/17 06:32:52;;;;;;;2.25;1.37;;;;;;;19.16;57.91;100672.64;1703341;84;25736;-72
2022/06/17 06:35:20;;;;;;;6.17;1.90;;;;;;;19.27;57.02;100672.27;1703326;84;25656;-69
2022/06/17 06:37:46;;;;;;;3.72;1.20;;;;;;;19.40;56.98;100665.52;1705092;84;25690;-71
2022/06/17 06:40:13;;;;;;;3.35;1.35;;;;;;;19.52;56.38;100660.47;1705655;84;27406;-72
2022/06/17 06:42:39;;;;;;;5.47;2.17;;;;;;;19.63;55.67;100655.77;1705375;84;25362;-72
2022/06/17 06:45:09;;;;;;;2.77;1.40;;;;;;;19.76;55.71;100664.10;1705571;84;25589;-72
2022/06/17 06:47:35;;;;;;;3.60;1.17;;;;;;;19.88;55.60;100657.66;1705191;83;25742;-72
2022/06/17 06:50:01;;;;;;;2.33;1.52;;;;;;;20.03;54.73;100660.89;1705550;84;25263;-72
2022/06/17 06:52:27;;;;;;;5.67;1.12;;;;;;;20.18;53.95;100653.70;1705363;84;27380;-72
2022/06/17 06:54:53;;;;;;;2.62;0.90;;;;;;;20.33;53.88;100664.37;1704995;84;25691;-72
2022/06/17 06:57:19;;;;;;;1.60;0.98;;;;;;;20.52;53.96;100660.75;1705370;84;25490;-72
2022/06/17 06:59:46;;;;;;;3.35;1.30;;;;;;;20.71;53.12;100660.69;1705514;84;25619;-71
2022/06/17 07:02:12;;;;;;;2.37;1.20;;;;;;;20.91;53.13;100659.22;1705518;84;25754;-71
2022/06/17 07:04:38;;;;;;;2.15;1.25;;;;;;;21.13;52.17;100662.26;1705416;84;27541;-71
2022/06/17 07:07:05;;;;;;;2.55;1.12;;;;;;;21.32;51.34;100664.89;1704624;84;25728;-69
2022/06/17 07:09:31;;;;;;;1.60;1.00;;;;;;;21.54;51.65;100658.29;1703605;84;26267;-70
2022/06/17 07:11:57;;;;;;;3.33;1.20;;;;;;;21.73;50.59;100655.38;1703585;84;25757;-70
2022/06/17 07:14:23;;;;;;;1.80;0.93;;;;;;;21.93;50.03;100654.63;1703691;84;25493;-72
2022/06/17 07:16:49;;;;;;;2.75;0.98;;;;;;;22.14;49.42;100649.11;1703574;84;27429;-71
2022/06/17 07:19:19;;;;;;;2.87;0.90;;;;;;;22.31;48.83;100655.39;1703418;84;25475;-71
2022/06/17 07:21:46;;;;;;;1.52;0.80;;;;;;;22.50;48.40;100654.36;1703403;84;25427;-71
2022/06/17 07:24:13;;;;;;;3.05;1.05;;;;;;;22.75;48.29;100657.91;1703444;84;25638;-71
2022/06/17 07:26:39;;;;;;;6.53;3.60;;;;;;;22.99;48.16;100664.76;1703561;84;25921;-70
2022/06/17 07:29:05;;;;;;;4.65;1.60;;;;;;;23.25;47.96;100662.95;1703406;84;28073;-70
2022/06/17 07:31:31;;;;;;;2.15;1.30;;;;;;;23.45;46.68;100653.19;1703298;84;25647;-71
2022/06/17 07:33:57;;;;;;;2.50;1.20;;;;;;;23.60;46.07;100657.37;1703392;84;25395;-70
2022/06/17 07:41:58;;;;;;;2.20;1.12;;;;;;;23.99;45.23;100667.19;1703222;84;27333;-70
2022/06/17 07:44:24;;;;;;;2.27;1.30;;;;;;;24.20;44.43;100660.89;1703524;84;25497;-70
2022/06/17 07:46:50;;;;;;;3.17;1.00;;;;;;;24.33;44.03;100660.50;1677390;84;25640;-71
2022/06/17 07:49:18;;;;;;;2.52;1.15;;;;;;;24.52;43.80;100663.45;1703443;84;25607;-70
2022/06/17 07:51:46;;;;;;;1.98;1.12;;;;;;;24.75;43.77;100658.94;1703582;84;25399;-70
2022/06/17 07:54:12;;;;;;;2.55;1.37;;;;;;;25.00;42.97;100660.88;1703578;84;27393;-70
2022/06/17 07:56:39;;;;;;;1.95;0.90;;;;;;;25.20;42.97;100662.01;1703502;84;25573;-71
2022/06/17 07:59:05;;;;;;;3.77;1.10;;;;;;;25.18;41.34;100674.05;1703519;84;25615;-71
2022/06/17 08:01:31;;;;;;;2.20;0.90;;;;;;;25.23;41.80;100665.94;1703484;84;26212;-70
2022/06/17 08:03:59;;;;;;;6.03;1.12;;;;;;;25.43;41.65;100660.77;1703599;84;25750;-71
2022/06/17 08:06:26;;;;;;;3.85;1.30;;;;;;;25.62;40.64;100652.56;1703563;84;27394;-71
2022/06/17 08:08:52;;;;;;;2.65;1.37;;;;;;;25.76;41.15;100660.00;1703444;84;26330;-71
2022/06/17 08:11:18;;;;;;;1.40;1.10;;;;;;;26.04;41.49;100663.23;1703507;84;25788;-71
2022/06/17 08:13:44;;;;;;;2.90;1.27;;;;;;;26.22;40.37;100657.55;1703554;84;25639;-72
2022/06/17 08:16:13;;;;;;;3.75;1.10;;;;;;;26.30;39.62;100650.75;1703537;84;25407;-72
2022/06/17 08:18:41;;;;;;;3.62;1.00;;;;;;;26.45;39.77;100657.75;1703653;84;27411;-72
2022/06/17 08:21:09;;;;;;;2.58;1.20;;;;;;;26.65;39.58;100658.01;1703369;84;25714;-71
2022/06/17 08:23:35;;;;;;;1.60;1.10;;;;;;;26.90;39.54;100666.70;1703731;84;25707;-71
2022/06/17 08:26:02;;;;;;;3.72;1.40;;;;;;;27.12;38.83;100670.61;1703469;84;25630;-71
2022/06/17 08:28:28;;;;;;;3.62;1.30;;;;;;;27.28;38.63;100675.61;1703551;84;25579;-71
2022/06/17 08:30:57;;;;;;;1.87;1.10;;;;;;;27.58;38.72;100667.31;1703459;84;27399;-70
2022/06/17 08:33:32;;;;;;;7.35;4.60;;;;;;;27.84;37.83;100668.34;1701811;84;25722;-71
2022/06/17 08:36:15;;;;;;;1.60;1.30;;;;;;;27.89;37.19;100672.03;1703081;84;25702;-71
2022/06/17 08:38:47;;;;;;;4.65;1.42;;;;;;;27.80;36.77;100664.84;1703069;84;26297;-70
2022/06/17 08:41:27;;;;;;;2.08;1.00;;;;;;;27.87;37.28;100667.50;1699775;84;25403;-70
2022/06/17 08:44:32;;;;;;;1.70;1.00;;;;;;;28.18;36.84;100656.34;1703139;84;28043;-71
2022/06/17 08:47:13;;;;;;;3.62;1.30;;;;;;;28.39;36.22;100664.97;1702872;84;25921;-70
2022/06/17 08:50:07;;;;;;;4.33;1.17;;;;;;;28.17;35.70;100676.42;1702859;83;25490;-70
2022/06/17 08:52:56;;;;;;;1.72;1.07;;;;;;;27.88;35.43;100677.43;1703182;84;25705;-70
2022/06/17 08:55:45;;;;;;;2.72;1.27;;;;;;;27.42;35.67;100678.84;1703002;84;25743;-69
2022/06/17 08:58:20;;;;;;;5.25;1.45;;;;;;;27.12;36.24;100677.55;1694926;84;27331;-70
2022/06/17 09:01:00;;;;;;;3.25;1.35;;;;;;;27.06;36.84;100672.28;1703221;84;25893;-69
2022/06/17 09:03:59;;;;;;;3.50;1.30;;;;;;;27.18;36.44;100677.30;1702540;83;25502;-69
2022/06/17 09:06:58;;;;;;;2.52;1.30;;;;;;;26.99;36.26;100675.31;1703166;84;25588;-69
2022/06/17 09:09:39;;;;;;;2.45;1.30;;;;;;;26.62;35.92;100682.98;1703064;84;25819;-69
2022/06/17 09:12:33;;;;;;;2.15;1.30;;;;;;;26.50;37.32;100675.17;1702069;84;27530;-68
2022/06/17 09:15:17;;;;;;;1.92;1.35;;;;;;;26.84;37.60;100682.20;1703163;84;25727;-69
2022/06/17 09:17:54;;;;;;;2.55;1.27;;;;;;;27.21;37.20;100676.48;1702514;84;25974;-69
2022/06/17 09:20:26;;;;;;;2.95;1.50;;;;;;;27.24;36.31;100680.39;1703289;84;27740;-69
2022/06/17 09:23:16;;;;;;;3.27;1.20;;;;;;;26.91;36.03;100688.30;1700333;84;25573;-70
2022/06/17 09:25:46;;;;;;;4.08;1.40;;;;;;;26.89;37.03;100690.09;1681476;85;28018;-69
2022/06/17 09:28:32;;;;;;;3.40;1.72;;;;;;;27.17;36.79;100690.37;1680168;85;25733;-66
2022/06/17 09:31:07;;;;;;;2.27;1.12;;;;;;;27.56;36.63;100692.53;1712611;83;25724;-69
2022/06/17 09:33:57;;;;;;;2.22;1.12;;;;;;;27.94;36.45;100706.34;1712735;82;26517;-69
2022/06/17 09:36:37;;;;;;;2.85;1.30;;;;;;;27.90;35.24;100709.76;1680306;85;25482;-68
2022/06/17 09:39:26;;;;;;;1.92;1.32;;;;;;;27.78;35.32;100713.88;1712539;83;27416;-68
2022/06/17 09:42:01;;;;;;;4.22;1.30;;;;;;;27.42;35.06;100708.78;1712619;83;25678;-67
2022/06/17 09:44:44;;;;;;;1.90;1.32;;;;;;;27.13;35.66;100697.97;1680762;85;25797;-67
2022/06/17 09:47:40;;;;;;;5.33;1.20;;;;;;;27.38;36.17;100700.49;1712793;83;25895;-67
2022/06/17 09:50:18;;;;;;;4.78;2.00;;;;;;;27.71;36.27;100702.88;1728366;82;25503;-67
2022/06/17 09:52:52;;;;;;;3.70;1.50;;;;;;;27.87;35.27;100710.59;1741155;82;27418;-67
2022/06/17 09:55:32;;;;;;;2.80;1.32;;;;;;;27.64;35.38;100705.75;1740942;82;25563;-67
2022/06/17 09:58:06;;;;;;;4.65;1.25;;;;;;;27.76;35.79;100714.30;1740932;82;25713;-66
2022/06/17 10:00:43;;;;;;;2.30;1.30;;;;;;;27.95;35.28;100718.44;1740629;82;25681;-69
2022/06/17 10:03:35;;;;;;;3.58;1.60;;;;;;;28.04;35.81;100716.52;1740735;82;25598;-67
2022/06/17 10:06:19;;;;;;;2.55;1.57;;;;;;;28.10;35.06;100715.47;1740259;82;27953;-68
2022/06/17 10:09:11;;;;;;;3.05;1.27;;;;;;;27.91;35.32;100716.90;1740653;82;25695;-68
2022/06/17 10:11:58;;;;;;;1.92;1.50;;;;;;;28.03;35.25;100713.58;1740806;82;26128;-67
2022/06/17 10:14:44;;;;;;;2.75;1.67;;;;;;;28.20;35.53;100725.64;1740175;81;25669;-68
2022/06/17 10:20:35;;;;;;;3.20;1.40;;;;;;;28.83;34.54;100721.48;1620253;88;27975;-69
2022/06/17 10:23:18;;;;;;;1.40;1.30;;;;;;;28.98;33.62;100718.63;1616508;88;25615;-66
2022/06/17 10:26:28;;;;;;;3.65;1.37;;;;;;;28.79;33.29;100715.18;1617290;88;25752;-67
2022/06/17 10:29:25;;;;;;;1.72;1.30;;;;;;;28.46;33.24;100721.25;1619730;88;27079;-66
2022/06/17 10:31:51;;;;;;;4.20;1.40;;;;;;;28.03;33.61;100721.14;1620064;88;26368;-67
2022/06/17 10:34:24;;;;;;;3.45;1.50;;;;;;;27.97;34.03;100722.19;1618977;88;27595;-68
2022/06/17 10:36:54;;;;;;;2.67;1.60;;;;;;;28.18;33.46;100713.35;1619779;88;25479;-68
2022/06/17 10:39:24;;;;;;;2.37;1.67;;;;;;;28.23;33.36;100712.88;1619775;88;26343;-67
2022/06/17 10:41:51;;;;;;;3.95;1.67;;;;;;;28.08;33.18;100724.22;1619838;88;25762;-68
2022/06/17 10:44:21;;;;;;;3.80;1.47;;;;;;;27.94;33.55;100721.05;1632315;87;25806;-67
2022/06/17 10:47:13;;;;;;;3.17;1.50;;;;;;;27.83;33.52;100712.64;1646506;87;27537;-67
2022/06/17 10:49:51;;;;;;;4.10;2.10;;;;;;;27.72;33.95;100714.16;1646164;87;25903;-68
2022/06/17 10:52:34;;;;;;;3.00;1.25;;;;;;;27.85;33.78;100712.39;1645817;86;26350;-67
2022/06/17 10:55:03;;;;;;;4.90;1.62;;;;;;;27.71;33.50;100712.59;1683453;84;25810;-66
2022/06/17 10:57:33;;;;;;;;;;;;;;;27.55;33.81;100713.20;1682192;85;26304;-66
2022/06/17 10:59:59;;;;;;;3.55;1.70;;;;;;;27.33;33.49;100717.61;1679716;85;27396;-67
2022/06/17 11:02:30;;;;;;;2.50;1.02;;;;;;;27.11;33.85;100714.25;1679718;85;25590;-66
2022/06/17 11:05:02;;;;;;;1.65;1.27;;;;;;;26.92;34.31;100710.66;1679420;84;25661;-69
2022/06/17 11:07:49;;;;;;;3.20;1.70;;;;;;;26.81;34.66;100712.94;1678723;85;25671;-72
2022/06/17 11:10:21;;;;;;;7.53;6.15;;;;;;;26.80;35.29;100707.22;1679735;85;25828;-68
2022/06/17 11:12:58;;;;;;;6.35;1.95;;;;;;;27.22;36.14;100704.41;1679693;85;27360;-69
2022/06/17 11:15:36;;;;;;;3.75;1.37;;;;;;;27.87;35.76;100704.45;1679483;84;25702;-69
2022/06/17 11:18:11;;;;;;;3.33;1.40;;;;;;;28.34;34.58;100697.44;1679159;85;25717;-68
2022/06/17 11:20:39;;;;;;;3.92;1.30;;;;;;;28.52;33.74;100710.45;1674001;85;26218;-66
2022/06/17 11:23:20;;;;;;;2.67;1.10;;;;;;;28.36;33.24;100704.75;1674787;85;25723;-67
2022/06/17 11:25:46;;;;;;;2.92;1.42;;;;;;;28.04;33.27;100710.18;1674669;85;27560;-67
2022/06/17 11:28:24;;;;;;;1.85;1.65;;;;;;;27.69;33.12;100718.56;1674790;85;25732;-67
2022/06/17 11:30:56;;;;;;;2.02;1.52;;;;;;;27.32;33.54;100727.13;1675060;85;25834;-68
2022/06/17 11:33:27;;;;;;;1.98;1.30;;;;;;;26.95;33.80;100720.37;1674542;85;25629;-69
2022/06/17 11:36:18;;;;;;;3.55;1.47;;;;;;;26.66;34.34;100708.72;1674822;84;25684;-68
2022/06/17 11:38:45;;;;;;;2.27;1.32;;;;;;;26.40;34.64;100719.20;1675029;85;27974;-67
2022/06/17 11:41:22;;;;;;;3.85;1.32;;;;;;;26.10;34.99;100721.17;1674560;85;25798;-68
2022/06/17 11:43:50;;;;;;;4.37;1.82;;;;;;;25.85;35.43;100722.70;1674595;85;25783;-69
2022/06/17 11:46:29;;;;;;;8.03;1.95;;;;;;;25.70;35.98;100720.58;1674670;85;25683;-69
2022/06/17 11:48:59;;;;;;;7.00;2.17;;;;;;;25.61;36.14;100722.41;1674969;85;25846;-69
2022/06/17 11:51:35;;;;;;;5.83;1.95;;;;;;;25.59;36.86;100724.79;1674831;85;27185;-70
2022/06/17 11:54:24;;;;;;;1.90;1.42;;;;;;;26.07;37.70;100718.63;1674800;85;25760;-69
2022/06/17 11:56:53;;;;;;;1.55;1.40;;;;;;;26.65;36.65;100726.58;1674805;85;26449;-69
2022/06/17 11:59:26;;;;;;;1.80;1.17;;;;;;;27.02;37.06;100722.26;1674844;85;25849;-69
2022/06/17 12:02:04;;;;;;;1.98;1.30;;;;;;;27.51;36.67;100725.72;1674959;85;25940;-68
2022/06/17 12:04:59;;;;;;;6.70;1.67;;;;;;;28.16;36.41;100719.33;1674967;85;27768;-68
2022/06/17 12:07:48;;;;;;;2.45;1.10;;;;;;;28.68;35.61;100707.03;1673477;85;26293;-68